Time;durP1;ratioP1;P1;durP2;ratioP2;P2;SDS_P1;SDS_P2;PMS_P1;PMS_P2;Temp;Humidity;BMP_temperature;BMP_pressure;BME280_temperature;BME280_humidity;BME280_pressure;Samples;Min_cycle;Max_cycle;Signal;HPM_P1;HPM_P2
2023/08/22 00:00:02;;;;;;;3.33;2.13;;;22.90;99.90;;;;;;5054224;28;20173;-68
2023/08/22 00:02:27;;;;;;;2.33;1.75;;;22.90;99.90;;;;;;5068658;28;20196;-67
2023/08/22 00:04:53;;;;;;;3.55;2.15;;;22.80;99.90;;;;;;5052672;28;20266;-68
2023/08/22 00:07:21;;;;;;;3.67;1.95;;;22.80;99.90;;;;;;5038371;28;20203;-69
2023/08/22 00:09:47;;;;;;;3.20;2.00;;;22.70;99.90;;;;;;5053364;28;20196;-69
2023/08/22 00:12:15;;;;;;;5.45;2.10;;;22.70;99.90;;;;;;5066228;28;20199;-69
2023/08/22 00:14:40;;;;;;;3.10;2.05;;;22.70;99.90;;;;;;5053889;28;20188;-69
2023/08/22 00:17:10;;;;;;;3.00;2.10;;;22.60;99.90;;;;;;5053131;28;20180;-69
2023/08/22 00:19:39;;;;;;;4.03;2.15;;;22.60;99.90;;;;;;5066561;28;20268;-66
2023/08/22 00:22:07;;;;;;;7.22;2.28;;;22.60;99.90;;;;;;5064533;28;20187;-67
2023/08/22 00:24:35;;;;;;;3.40;1.85;;;22.60;99.90;;;;;;5063266;28;20250;-67
2023/08/22 00:27:01;;;;;;;4.03;1.98;;;22.60;99.90;;;;;;5059497;28;20200;-67
2023/08/22 00:29:29;;;;;;;3.42;2.05;;;22.60;99.90;;;;;;5037792;28;20483;-68
2023/08/22 00:31:54;;;;;;;2.17;1.80;;;22.60;99.90;;;;;;5057773;28;20228;-67
2023/08/22 00:34:22;;;;;;;2.92;1.83;;;22.60;99.90;;;;;;5047309;28;20166;-69
2023/08/22 00:36:50;;;;;;;3.53;1.80;;;22.60;99.90;;;;;;5079040;28;20175;-68
2023/08/22 00:39:16;;;;;;;4.05;2.03;;;22.60;99.90;;;;;;5055623;28;20284;-68
2023/08/22 00:41:42;;;;;;;3.85;2.00;;;22.60;99.90;;;;;;5067221;28;20276;-68
2023/08/22 00:44:10;;;;;;;3.45;1.75;;;22.60;99.90;;;;;;5056115;28;20180;-68
2023/08/22 00:46:38;;;;;;;2.22;1.70;;;22.60;99.90;;;;;;5077739;28;20173;-68
2023/08/22 00:49:10;;;;;;;3.33;1.77;;;22.60;99.90;;;;;;5056250;28;20204;-67
2023/08/22 00:51:39;;;;;;;2.45;1.42;;;22.60;99.90;;;;;;5065625;28;20200;-69
2023/08/22 00:54:10;;;;;;;2.80;1.67;;;22.60;99.90;;;;;;5069518;28;20271;-69
2023/08/22 00:56:36;;;;;;;3.67;2.03;;;22.60;99.90;;;;;;5061085;28;20169;-68
2023/08/22 00:59:03;;;;;;;3.20;2.13;;;22.60;99.90;;;;;;5072130;28;20211;-67
2023/08/22 01:01:36;;;;;;;3.63;2.10;;;22.60;99.90;;;;;;5053757;28;20197;-68
2023/08/22 01:04:04;;;;;;;3.67;1.90;;;22.60;99.90;;;;;;5037450;28;20173;-68
2023/08/22 01:06:39;;;;;;;4.85;1.83;;;22.60;99.90;;;;;;5047262;28;20184;-68
2023/08/22 01:09:15;;;;;;;3.08;1.73;;;22.60;99.90;;;;;;5057403;28;20184;-68
2023/08/22 01:11:47;;;;;;;2.70;1.80;;;22.60;99.90;;;;;;5057316;28;20188;-67
2023/08/22 01:14:19;;;;;;;3.70;2.13;;;22.50;99.90;;;;;;5057494;28;20184;-68
2023/08/22 01:16:46;;;;;;;2.35;1.50;;;22.50;99.90;;;;;;5060035;28;20504;-68
2023/08/22 01:19:13;;;;;;;2.88;1.67;;;22.50;99.90;;;;;;5060791;28;20200;-68
2023/08/22 01:21:54;;;;;;;3.72;2.08;;;22.40;99.90;;;;;;5060715;28;20180;-68
2023/08/22 01:24:20;;;;;;;2.65;1.83;;;22.40;99.90;;;;;;5061318;28;20286;-68
2023/08/22 01:26:47;;;;;;;2.50;1.40;;;22.40;99.90;;;;;;5072406;28;20489;-68
2023/08/22 01:29:22;;;;;;;2.33;1.73;;;22.40;99.90;;;;;;5066264;28;20279;-69
2023/08/22 01:32:04;;;;;;;4.20;2.03;;;22.40;99.90;;;;;;5059634;28;20238;-67
2023/08/22 01:34:32;;;;;;;3.60;1.83;;;22.40;99.90;;;;;;5055726;28;20179;-68
2023/08/22 01:36:59;;;;;;;2.50;1.63;;;22.40;99.90;;;;;;5057004;28;20169;-68
2023/08/22 01:39:29;;;;;;;3.97;1.90;;;22.40;99.90;;;;;;5057250;28;20174;-68
2023/08/22 01:41:56;;;;;;;2.67;1.92;;;22.40;99.90;;;;;;5057346;28;20173;-68
2023/08/22 01:44:25;;;;;;;2.97;1.85;;;22.40;99.90;;;;;;5057188;28;20300;-68
2023/08/22 01:46:50;;;;;;;3.22;1.70;;;22.40;99.90;;;;;;5068277;28;20184;-68
2023/08/22 01:49:16;;;;;;;2.47;1.70;;;22.30;99.90;;;;;;5060079;28;20212;-68
2023/08/22 01:51:42;;;;;;;3.15;1.70;;;22.30;99.90;;;;;;5060607;28;20192;-67
2023/08/22 01:54:07;;;;;;;2.30;1.55;;;22.30;99.90;;;;;;5056899;28;20166;-68
2023/08/22 01:56:33;;;;;;;4.88;2.00;;;22.30;99.90;;;;;;5041933;28;20181;-67
2023/08/22 01:58:59;;;;;;;4.97;2.20;;;22.30;99.90;;;;;;5057003;28;20177;-68
2023/08/22 02:01:24;;;;;;;6.38;2.00;;;22.30;99.90;;;;;;5060167;28;20236;-68
2023/08/22 02:03:50;;;;;;;3.88;1.98;;;22.30;99.90;;;;;;5058945;28;20173;-68
2023/08/22 02:06:18;;;;;;;3.45;2.10;;;22.30;99.90;;;;;;5054086;28;20164;-68
2023/08/22 02:08:44;;;;;;;3.10;2.10;;;22.20;99.90;;;;;;5058453;28;20204;-68
2023/08/22 02:11:12;;;;;;;3.70;1.95;;;22.20;99.90;;;;;;5052428;28;20196;-68
2023/08/22 02:13:37;;;;;;;3.47;2.00;;;22.20;99.90;;;;;;5060964;28;20176;-68
2023/08/22 02:16:08;;;;;;;3.28;1.90;;;22.10;99.90;;;;;;5060200;28;20176;-68
2023/08/22 02:18:34;;;;;;;3.85;2.30;;;22.10;99.90;;;;;;5059990;28;20204;-68
2023/08/22 02:20:59;;;;;;;4.18;2.00;;;22.10;99.90;;;;;;5056555;28;20207;-69
2023/08/22 02:23:26;;;;;;;3.45;1.83;;;22.00;99.90;;;;;;5059895;28;20183;-68
2023/08/22 02:25:52;;;;;;;3.67;1.85;;;22.10;99.90;;;;;;5059882;28;20200;-68
2023/08/22 02:28:17;;;;;;;2.72;2.00;;;22.00;99.90;;;;;;5057746;28;20180;-68
2023/08/22 02:30:46;;;;;;;2.25;1.75;;;22.00;99.90;;;;;;5059241;28;20189;-68
2023/08/22 02:33:16;;;;;;;2.22;1.58;;;21.90;99.90;;;;;;5050898;28;20212;-68
2023/08/22 02:35:41;;;;;;;10.18;2.22;;;21.90;99.90;;;;;;5051000;28;20181;-68
2023/08/22 02:38:07;;;;;;;4.95;1.98;;;21.90;99.90;;;;;;5059607;28;20532;-68
2023/08/22 02:40:33;;;;;;;2.88;1.80;;;21.80;99.90;;;;;;5055846;28;20219;-68
2023/08/22 02:42:59;;;;;;;3.20;1.70;;;21.80;99.90;;;;;;5074305;28;20180;-68
2023/08/22 02:45:24;;;;;;;3.63;1.73;;;21.80;99.90;;;;;;5059401;28;20180;-68
2023/08/22 02:47:50;;;;;;;4.10;1.95;;;21.70;99.90;;;;;;5058602;28;20290;-68
2023/08/22 02:50:18;;;;;;;2.75;1.85;;;21.70;99.90;;;;;;5054026;28;20207;-68
2023/08/22 02:52:43;;;;;;;3.80;1.95;;;21.70;99.90;;;;;;5059475;28;20173;-68
2023/08/22 02:55:11;;;;;;;2.67;2.10;;;21.60;99.90;;;;;;5055922;28;20187;-68
2023/08/22 02:57:39;;;;;;;3.00;1.83;;;21.60;99.90;;;;;;5058341;28;20224;-68
2023/08/22 03:00:07;;;;;;;3.50;1.98;;;21.50;99.90;;;;;;5062367;28;20184;-68
2023/08/22 03:02:33;;;;;;;4.07;3.10;;;21.50;99.90;;;;;;5061240;28;20268;-68
2023/08/22 03:05:04;;;;;;;3.80;2.45;;;21.50;99.90;;;;;;5069926;28;20220;-68
2023/08/22 03:07:32;;;;;;;3.20;1.90;;;21.40;99.90;;;;;;5058993;28;20173;-68
2023/08/22 03:10:00;;;;;;;2.38;1.73;;;21.40;99.90;;;;;;5051460;28;20197;-68
2023/08/22 03:12:25;;;;;;;3.00;2.00;;;21.40;99.90;;;;;;5048785;28;20203;-68
2023/08/22 03:14:51;;;;;;;2.83;2.00;;;21.30;99.90;;;;;;5062044;28;20256;-67
2023/08/22 03:17:17;;;;;;;3.55;2.17;;;21.20;99.90;;;;;;5064523;28;20184;-68
2023/08/22 03:19:42;;;;;;;3.00;1.92;;;21.20;99.90;;;;;;5061110;28;20192;-67
2023/08/22 03:22:08;;;;;;;3.28;2.28;;;21.20;99.90;;;;;;5057333;28;20448;-68
2023/08/22 03:24:34;;;;;;;3.03;1.92;;;21.20;99.90;;;;;;5068964;28;20207;-68
2023/08/22 03:26:59;;;;;;;3.45;1.98;;;21.20;99.90;;;;;;5073867;28;20265;-68
2023/08/22 03:29:25;;;;;;;3.60;2.15;;;21.10;99.90;;;;;;5066364;28;20216;-68
2023/08/22 03:31:51;;;;;;;5.22;2.05;;;21.10;99.90;;;;;;5061273;28;20196;-68
2023/08/22 03:34:16;;;;;;;4.45;2.55;;;21.10;99.90;;;;;;5058528;28;20168;-68
2023/08/22 03:36:42;;;;;;;2.85;2.00;;;21.10;99.90;;;;;;5058687;28;20175;-68
2023/08/22 03:39:08;;;;;;;4.95;2.25;;;21.00;99.90;;;;;;5058142;28;20175;-67
2023/08/22 03:41:38;;;;;;;3.05;2.10;;;21.00;99.90;;;;;;5058657;28;20168;-68
2023/08/22 03:44:04;;;;;;;2.78;2.10;;;21.00;99.90;;;;;;5058582;28;20161;-68
2023/08/22 03:46:29;;;;;;;3.45;2.20;;;21.00;99.90;;;;;;5075163;28;20275;-68
2023/08/22 03:48:55;;;;;;;4.00;1.95;;;20.90;99.90;;;;;;5057612;28;20208;-68
2023/08/22 03:51:23;;;;;;;3.97;2.13;;;21.00;99.90;;;;;;5058543;28;20246;-67
2023/08/22 03:53:51;;;;;;;3.63;2.08;;;20.90;99.90;;;;;;5058220;28;20173;-68
2023/08/22 03:56:21;;;;;;;4.53;2.10;;;20.90;99.90;;;;;;5058176;28;20211;-68
2023/08/22 03:58:49;;;;;;;2.15;1.80;;;20.90;99.90;;;;;;5058210;28;20169;-68
2023/08/22 04:01:15;;;;;;;2.90;1.90;;;20.90;99.90;;;;;;5058251;28;20177;-67
2023/08/22 04:03:40;;;;;;;2.33;1.98;;;20.80;99.90;;;;;;5056805;28;20201;-68
2023/08/22 04:06:06;;;;;;;3.10;2.00;;;20.90;99.90;;;;;;5052667;28;20205;-68
2023/08/22 04:08:35;;;;;;;3.45;2.80;;;20.80;99.90;;;;;;5048011;28;20187;-68
2023/08/22 04:11:01;;;;;;;4.65;2.80;;;20.80;99.90;;;;;;5057388;28;20207;-68
2023/08/22 04:13:26;;;;;;;4.25;2.40;;;20.70;99.90;;;;;;5057631;28;20172;-68
2023/08/22 04:15:54;;;;;;;4.15;2.42;;;20.80;99.90;;;;;;5054894;28;20346;-68
2023/08/22 04:18:20;;;;;;;4.60;2.22;;;20.70;99.90;;;;;;5057909;28;20183;-67
2023/08/22 04:20:45;;;;;;;5.00;1.80;;;20.80;99.90;;;;;;5057992;28;20255;-67
2023/08/22 04:23:15;;;;;;;6.07;2.75;;;20.80;99.90;;;;;;5058041;28;20179;-68
2023/08/22 04:25:41;;;;;;;3.08;2.17;;;20.70;99.90;;;;;;5057978;28;20161;-67
2023/08/22 04:28:07;;;;;;;6.22;3.00;;;20.70;99.90;;;;;;5047769;28;20209;-68
2023/08/22 04:30:35;;;;;;;4.57;2.53;;;20.70;99.90;;;;;;5054196;28;20207;-68
2023/08/22 04:33:02;;;;;;;4.20;2.70;;;20.70;99.90;;;;;;5054287;28;20213;-67
2023/08/22 04:35:29;;;;;;;3.33;2.90;;;20.70;99.90;;;;;;5057834;28;20172;-67
2023/08/22 04:37:55;;;;;;;3.53;2.80;;;20.70;99.90;;;;;;5050314;28;20184;-66
2023/08/22 04:40:20;;;;;;;4.25;2.53;;;20.60;99.90;;;;;;5055850;28;20180;-65
2023/08/22 04:42:46;;;;;;;4.78;2.83;;;20.60;99.90;;;;;;5056557;28;20208;-68
2023/08/22 04:45:12;;;;;;;3.47;2.20;;;20.60;99.90;;;;;;5057764;28;20173;-66
2023/08/22 04:47:40;;;;;;;5.97;3.50;;;20.60;99.90;;;;;;5053839;28;20277;-67
2023/08/22 04:50:06;;;;;;;4.55;2.85;;;20.60;99.90;;;;;;5061322;28;20215;-67
2023/08/22 04:52:32;;;;;;;6.45;2.90;;;20.60;99.90;;;;;;5068651;28;20166;-66
2023/08/22 04:54:59;;;;;;;4.65;2.75;;;20.60;99.90;;;;;;5068161;28;20193;-67
2023/08/22 04:57:25;;;;;;;7.50;2.33;;;20.70;99.90;;;;;;5051703;28;20184;-67
2023/08/22 04:59:54;;;;;;;5.47;2.50;;;20.60;99.90;;;;;;5061896;28;20327;-67
2023/08/22 05:02:21;;;;;;;3.88;2.42;;;20.70;99.90;;;;;;5062681;28;20199;-67
2023/08/22 05:04:50;;;;;;;4.35;2.20;;;20.70;99.90;;;;;;5060839;28;20187;-67
2023/08/22 05:07:18;;;;;;;5.70;2.60;;;20.70;99.90;;;;;;5061371;28;20203;-68
2023/08/22 05:09:45;;;;;;;5.05;2.60;;;20.70;99.90;;;;;;5061212;28;20207;-67
2023/08/22 05:12:11;;;;;;;3.65;2.60;;;20.70;99.90;;;;;;5061134;28;20169;-67
2023/08/22 05:14:37;;;;;;;2.88;2.40;;;20.70;99.90;;;;;;5054146;28;20197;-68
2023/08/22 05:17:03;;;;;;;5.22;2.53;;;20.70;99.90;;;;;;5043601;28;20174;-68
2023/08/22 05:19:31;;;;;;;4.05;2.63;;;20.80;99.90;;;;;;5047591;28;20185;-66
2023/08/22 05:21:59;;;;;;;4.40;2.40;;;20.80;99.90;;;;;;5061038;28;20181;-66
2023/08/22 05:24:24;;;;;;;5.25;2.30;;;20.80;99.90;;;;;;5061001;28;20176;-66
2023/08/22 05:26:52;;;;;;;7.68;2.40;;;20.80;99.90;;;;;;5075281;28;20200;-66
2023/08/22 05:29:20;;;;;;;5.70;2.72;;;20.80;99.90;;;;;;5080580;28;20200;-65
2023/08/22 05:31:46;;;;;;;5.00;2.17;;;20.90;99.90;;;;;;5071863;28;20182;-66
2023/08/22 05:34:14;;;;;;;4.25;2.38;;;20.90;99.90;;;;;;5060394;28;20164;-66
2023/08/22 05:36:40;;;;;;;4.13;2.47;;;20.90;99.90;;;;;;5060385;28;20200;-66
2023/08/22 05:39:08;;;;;;;4.35;2.30;;;20.90;99.90;;;;;;5060469;28;20177;-66
2023/08/22 05:41:34;;;;;;;4.82;2.58;;;20.90;99.90;;;;;;5060566;28;20234;-66
2023/08/22 05:43:59;;;;;;;5.97;2.50;;;20.90;99.90;;;;;;5060457;28;20181;-66
2023/08/22 05:46:27;;;;;;;3.70;2.50;;;20.90;99.90;;;;;;5060758;28;20200;-66
2023/08/22 05:48:55;;;;;;;3.72;2.20;;;20.90;99.90;;;;;;5077469;28;20204;-66
2023/08/22 05:51:21;;;;;;;4.30;2.22;;;20.90;99.90;;;;;;5060261;28;20220;-65
2023/08/22 05:53:47;;;;;;;5.90;2.65;;;20.90;99.90;;;;;;5059967;28;20211;-65
2023/08/22 05:56:12;;;;;;;3.60;2.42;;;21.00;99.90;;;;;;5060254;28;20187;-66
2023/08/22 05:58:38;;;;;;;3.83;2.42;;;21.00;99.90;;;;;;5059970;28;20196;-66
2023/08/22 06:01:13;;;;;;;5.65;2.70;;;21.00;99.90;;;;;;5077316;28;20181;-66
2023/08/22 06:03:39;;;;;;;3.97;2.30;;;21.10;99.90;;;;;;5060325;28;20222;-66
2023/08/22 06:06:05;;;;;;;4.60;2.50;;;21.10;99.90;;;;;;5048478;28;20209;-66
2023/08/22 06:08:31;;;;;;;5.53;2.60;;;21.10;99.90;;;;;;5040083;28;20169;-66
2023/08/22 06:10:58;;;;;;;5.15;2.50;;;21.10;99.90;;;;;;5040134;28;20180;-66
2023/08/22 06:13:26;;;;;;;6.97;2.33;;;21.20;99.90;;;;;;5039659;28;20201;-66
2023/08/22 06:15:52;;;;;;;4.57;2.50;;;21.10;99.90;;;;;;5057299;28;20161;-66
2023/08/22 06:18:22;;;;;;;4.88;2.80;;;21.20;99.90;;;;;;5040046;28;20172;-66
2023/08/22 06:20:50;;;;;;;6.35;2.92;;;21.30;99.90;;;;;;5040085;28;20205;-65
2023/08/22 06:23:16;;;;;;;5.97;2.70;;;21.40;99.90;;;;;;5058089;28;20181;-65
2023/08/22 06:25:47;;;;;;;4.15;3.00;;;21.40;99.90;;;;;;5059847;28;20172;-66
2023/08/22 06:28:13;;;;;;;7.78;2.88;;;21.50;99.90;;;;;;5059744;28;20200;-65
2023/08/22 06:30:39;;;;;;;6.00;2.70;;;21.50;99.90;;;;;;5059706;28;20253;-66
2023/08/22 06:33:07;;;;;;;3.83;2.78;;;21.60;99.90;;;;;;5059928;28;20260;-66
2023/08/22 06:35:33;;;;;;;7.07;3.10;;;21.60;99.90;;;;;;5059666;28;20216;-66
2023/08/22 06:38:00;;;;;;;5.80;2.80;;;21.60;99.90;;;;;;5059131;28;20172;-66
2023/08/22 06:40:26;;;;;;;3.28;2.63;;;21.60;99.90;;;;;;5059178;28;20204;-65
2023/08/22 06:42:52;;;;;;;4.07;2.75;;;21.60;99.90;;;;;;5059258;28;20231;-65
2023/08/22 06:45:17;;;;;;;3.78;2.95;;;21.70;99.90;;;;;;5059533;28;20177;-66
2023/08/22 06:47:44;;;;;;;6.32;2.65;;;21.70;99.90;;;;;;5059059;28;20198;-65
2023/08/22 06:50:09;;;;;;;4.20;2.67;;;21.70;99.90;;;;;;5059155;28;20215;-66
2023/08/22 06:52:35;;;;;;;5.03;2.65;;;21.70;99.90;;;;;;5059336;28;20267;-66
2023/08/22 06:55:04;;;;;;;4.28;2.40;;;21.80;99.90;;;;;;5059273;28;20225;-66
2023/08/22 06:57:29;;;;;;;4.93;2.78;;;21.80;99.90;;;;;;5059125;28;20313;-65
2023/08/22 06:59:57;;;;;;;4.45;2.78;;;21.90;99.90;;;;;;5059242;28;20519;-66
2023/08/22 07:02:25;;;;;;;7.82;2.90;;;21.90;99.90;;;;;;5059108;28;20258;-66
2023/08/22 07:04:52;;;;;;;4.38;2.80;;;22.00;99.90;;;;;;5059047;28;20223;-65
2023/08/22 07:07:18;;;;;;;6.30;3.05;;;22.10;99.90;;;;;;5059012;28;20172;-66
2023/08/22 07:09:47;;;;;;;5.82;3.33;;;22.20;99.90;;;;;;5058895;28;20207;-66
2023/08/22 07:12:15;;;;;;;6.38;3.22;;;22.30;99.90;;;;;;5058859;28;20193;-66
2023/08/22 07:14:43;;;;;;;4.78;3.05;;;22.30;99.90;;;;;;5075477;28;20165;-66
2023/08/22 07:17:11;;;;;;;4.40;3.13;;;22.40;99.90;;;;;;5059005;28;20179;-66
2023/08/22 07:19:36;;;;;;;6.10;3.10;;;22.50;99.90;;;;;;5071510;28;20201;-66
2023/08/22 07:22:07;;;;;;;6.20;3.50;;;22.60;99.90;;;;;;5075476;28;20183;-65
2023/08/22 07:24:33;;;;;;;7.25;2.90;;;22.60;99.90;;;;;;5075392;28;20226;-66
2023/08/22 07:27:03;;;;;;;7.40;3.85;;;22.70;99.90;;;;;;5075361;28;20197;-66
2023/08/22 07:29:31;;;;;;;6.43;3.45;;;22.80;99.90;;;;;;5075152;28;20196;-66
2023/08/22 07:32:01;;;;;;;8.98;3.58;;;22.80;99.90;;;;;;5074952;28;20168;-66
2023/08/22 07:34:27;;;;;;;5.57;3.05;;;22.90;99.90;;;;;;5075143;28;20314;-66
2023/08/22 07:36:53;;;;;;;5.30;3.00;;;22.90;99.90;;;;;;5075210;28;20200;-66
2023/08/22 07:39:21;;;;;;;5.55;3.22;;;23.00;99.90;;;;;;5075133;28;20207;-66
2023/08/22 07:41:47;;;;;;;7.70;3.40;;;23.10;99.90;;;;;;5074640;28;20177;-65
2023/08/22 07:44:13;;;;;;;5.32;3.28;;;23.20;99.90;;;;;;5074909;28;20194;-66
2023/08/22 07:46:39;;;;;;;4.18;2.97;;;23.30;99.90;;;;;;5082068;28;20255;-66
2023/08/22 07:49:05;;;;;;;5.50;3.00;;;23.30;99.90;;;;;;5057985;28;20312;-66
2023/08/22 07:51:34;;;;;;;7.20;3.13;;;23.40;99.90;;;;;;5054792;28;20184;-65
2023/08/22 07:54:03;;;;;;;5.32;2.72;;;23.50;99.90;;;;;;5038140;28;20165;-65
2023/08/22 07:56:29;;;;;;;6.07;3.38;;;23.60;99.90;;;;;;5054619;28;20189;-66
2023/08/22 07:58:54;;;;;;;8.00;3.03;;;23.60;99.90;;;;;;5038264;28;20173;-65
2023/08/22 08:01:20;;;;;;;5.50;3.25;;;23.70;99.90;;;;;;5038225;28;20180;-65
2023/08/22 08:03:46;;;;;;;5.82;2.80;;;23.70;99.90;;;;;;5038570;28;20200;-66
2023/08/22 08:06:13;;;;;;;3.03;2.22;;;23.80;99.90;;;;;;5058078;28;20168;-66
2023/08/22 08:08:39;;;;;;;5.20;2.58;;;23.80;99.90;;;;;;5057897;28;20193;-66
2023/08/22 08:11:05;;;;;;;5.00;2.60;;;23.90;99.90;;;;;;5054540;28;20288;-66
2023/08/22 08:13:35;;;;;;;3.72;2.30;;;23.90;99.90;;;;;;5038164;28;20227;-66
2023/08/22 08:16:01;;;;;;;5.75;2.42;;;24.00;99.90;;;;;;5055401;28;20184;-65
2023/08/22 08:18:27;;;;;;;4.85;2.55;;;24.10;99.90;;;;;;5057872;28;20172;-66
2023/08/22 08:20:52;;;;;;;6.20;2.60;;;24.10;99.90;;;;;;5057541;28;20200;-66
2023/08/22 08:23:18;;;;;;;4.22;2.45;;;24.20;99.90;;;;;;5057919;28;20176;-66
2023/08/22 08:25:46;;;;;;;4.57;2.78;;;24.20;99.90;;;;;;5057812;28;20207;-66
2023/08/22 08:28:12;;;;;;;4.95;2.92;;;24.30;99.90;;;;;;5057714;28;20271;-66
2023/08/22 08:30:39;;;;;;;5.68;2.67;;;24.30;99.90;;;;;;5057549;28;20295;-65
2023/08/22 08:33:09;;;;;;;6.32;2.50;;;24.30;99.90;;;;;;5074899;28;20157;-66
2023/08/22 08:35:34;;;;;;;3.42;2.58;;;24.50;99.90;;;;;;5057759;28;20165;-66
2023/08/22 08:38:00;;;;;;;4.57;2.67;;;24.50;99.90;;;;;;5057283;28;20199;-66
2023/08/22 08:40:36;;;;;;;4.97;2.72;;;24.70;99.90;;;;;;5057402;28;20184;-65
2023/08/22 08:43:03;;;;;;;4.60;2.60;;;24.80;99.90;;;;;;5057556;28;20228;-66
2023/08/22 08:45:32;;;;;;;5.10;2.67;;;24.90;99.90;;;;;;5057445;28;20259;-66
2023/08/22 08:48:01;;;;;;;6.10;3.00;;;25.00;99.90;;;;;;5047015;28;20235;-68
2023/08/22 08:50:29;;;;;;;4.75;2.40;;;25.20;99.90;;;;;;5037506;28;20204;-66
2023/08/22 08:52:55;;;;;;;3.72;2.15;;;25.30;99.90;;;;;;5037520;28;20177;-66
2023/08/22 08:55:20;;;;;;;5.32;2.75;;;25.40;99.90;;;;;;5043283;28;20212;-66
2023/08/22 08:57:49;;;;;;;6.38;2.50;;;25.50;99.90;;;;;;5071265;28;20250;-66
2023/08/22 09:00:16;;;;;;;4.85;2.72;;;25.60;99.90;;;;;;5057329;28;20169;-66
2023/08/22 09:02:44;;;;;;;3.85;2.60;;;25.70;99.90;;;;;;5074495;28;20164;-67
2023/08/22 09:05:11;;;;;;;6.43;2.72;;;25.80;99.90;;;;;;5057362;28;20421;-66
2023/08/22 09:07:38;;;;;;;4.45;2.63;;;25.80;99.90;;;;;;5057567;28;20164;-66
2023/08/22 09:10:05;;;;;;;4.30;3.10;;;25.90;99.90;;;;;;5057414;28;20219;-68
2023/08/22 09:12:35;;;;;;;4.70;2.50;;;26.10;99.90;;;;;;5057483;28;20201;-67
2023/08/22 09:15:07;;;;;;;5.05;2.70;;;26.20;99.90;;;;;;5056760;28;20172;-66
2023/08/22 09:17:35;;;;;;;9.18;2.80;;;26.30;99.90;;;;;;5057070;28;20260;-66
2023/08/22 09:20:09;;;;;;;8.02;3.25;;;26.40;99.90;;;;;;5057216;28;20204;-66
2023/08/22 09:22:37;;;;;;;8.57;3.58;;;26.60;99.90;;;;;;5057352;28;20177;-68
2023/08/22 09:25:07;;;;;;;4.57;2.83;;;26.60;99.90;;;;;;5057180;28;20199;-66
2023/08/22 09:27:33;;;;;;;6.35;2.97;;;26.70;99.90;;;;;;5056885;28;20200;-66
2023/08/22 09:30:04;;;;;;;3.70;2.78;;;26.70;99.90;;;;;;5056490;28;20199;-66
2023/08/22 09:32:30;;;;;;;4.60;2.95;;;26.70;99.90;;;;;;5058608;28;20395;-66
2023/08/22 09:35:00;;;;;;;6.53;3.10;;;26.80;99.90;;;;;;5056714;28;20176;-66
2023/08/22 09:37:34;;;;;;;5.00;2.67;;;26.80;99.90;;;;;;5058883;28;20310;-66
2023/08/22 09:40:03;;;;;;;5.72;2.70;;;26.90;99.90;;;;;;5060698;28;20203;-66
2023/08/22 09:42:30;;;;;;;3.65;2.63;;;26.90;99.90;;;;;;5060714;28;20254;-66
2023/08/22 09:44:56;;;;;;;5.55;2.38;;;27.00;99.90;;;;;;5060364;28;20172;-66
2023/08/22 09:47:32;;;;;;;3.60;2.47;;;27.00;99.90;;;;;;5056900;28;20197;-66
2023/08/22 09:50:05;;;;;;;2.22;1.98;;;27.10;99.90;;;;;;5040572;28;20195;-66
2023/08/22 09:52:36;;;;;;;4.05;2.33;;;27.10;99.90;;;;;;5072212;28;20218;-66
2023/08/22 09:55:02;;;;;;;3.55;2.10;;;27.20;99.90;;;;;;5057180;28;20162;-66
2023/08/22 09:57:30;;;;;;;4.32;2.30;;;27.30;99.90;;;;;;5040114;28;20196;-66
2023/08/22 09:59:59;;;;;;;3.33;2.40;;;27.40;99.90;;;;;;5040229;28;20169;-66
2023/08/22 10:02:32;;;;;;;4.38;2.83;;;27.50;99.90;;;;;;5040263;28;20211;-66
2023/08/22 10:04:59;;;;;;;7.10;2.83;;;27.60;99.90;;;;;;5058938;28;20176;-66
2023/08/22 10:07:24;;;;;;;14.25;5.00;;;27.80;99.90;;;;;;5060078;28;20263;-66
2023/08/22 10:09:53;;;;;;;6.93;3.92;;;27.90;99.90;;;;;;5060148;28;20259;-66
2023/08/22 10:12:23;;;;;;;9.75;4.10;;;28.10;99.90;;;;;;5060001;28;20165;-66
2023/08/22 10:14:57;;;;;;;10.93;4.38;;;28.20;99.90;;;;;;5059872;28;20196;-66
2023/08/22 10:17:27;;;;;;;8.48;3.55;;;28.30;99.90;;;;;;5060089;28;20163;-66
2023/08/22 10:20:04;;;;;;;8.88;4.00;;;28.50;99.90;;;;;;5059589;28;20180;-66
2023/08/22 10:22:32;;;;;;;6.72;2.80;;;28.70;99.90;;;;;;5059720;28;20256;-66
2023/08/22 10:25:06;;;;;;;6.70;3.40;;;28.90;99.90;;;;;;5060006;28;20177;-66
2023/08/22 10:27:33;;;;;;;6.00;2.92;;;29.00;99.90;;;;;;5059965;28;20179;-66
2023/08/22 10:30:14;;;;;;;7.90;3.25;;;29.20;99.90;;;;;;5059227;28;20200;-65
2023/08/22 10:32:40;;;;;;;5.43;3.70;;;29.40;99.90;;;;;;5059743;28;20184;-66
2023/08/22 10:35:21;;;;;;;4.82;4.00;;;29.60;99.90;;;;;;5059303;28;20448;-66
2023/08/22 10:37:50;;;;;;;7.60;3.88;;;29.70;99.90;;;;;;5059529;28;20224;-66
2023/08/22 10:40:35;;;;;;;8.77;4.70;;;29.90;99.90;;;;;;5056158;28;20180;-66
2023/08/22 10:43:10;;;;;;;13.32;5.68;;;30.00;99.90;;;;;;5075588;28;20191;-67
2023/08/22 10:45:40;;;;;;;8.45;4.60;;;30.10;99.90;;;;;;5076110;28;20172;-67
2023/08/22 10:48:12;;;;;;;5.63;3.58;;;30.20;99.90;;;;;;5074948;28;20279;-67
2023/08/22 10:50:43;;;;;;;6.88;3.20;;;30.20;99.90;;;;;;5075549;28;20202;-67
2023/08/22 10:53:25;;;;;;;5.97;3.22;;;30.30;99.90;;;;;;5076208;28;20168;-66
2023/08/22 10:55:51;;;;;;;4.97;2.88;;;30.20;99.90;;;;;;5061293;28;20414;-66
2023/08/22 10:58:41;;;;;;;6.15;2.78;;;30.10;99.90;;;;;;5059342;28;20174;-65
2023/08/22 11:01:09;;;;;;;4.45;2.70;;;30.00;99.90;;;;;;5059268;28;20179;-66
2023/08/22 11:03:37;;;;;;;5.00;2.92;;;30.00;99.90;;;;;;5063551;28;20215;-65
2023/08/22 11:06:11;;;;;;;4.03;2.78;;;29.90;99.90;;;;;;5075668;28;20251;-66
2023/08/22 11:08:38;;;;;;;4.60;2.50;;;29.90;99.90;;;;;;5075456;28;20174;-66
2023/08/22 11:11:04;;;;;;;4.72;2.38;;;30.00;99.90;;;;;;5075073;28;20208;-66
2023/08/22 11:13:37;;;;;;;4.20;2.72;;;30.30;99.90;;;;;;5057962;28;20199;-66
2023/08/22 11:16:09;;;;;;;3.72;2.35;;;30.70;99.90;;;;;;5058735;28;20180;-67
2023/08/22 11:18:36;;;;;;;4.25;2.15;;;31.00;99.90;;;;;;5047170;28;20189;-66
2023/08/22 11:21:05;;;;;;;4.45;2.05;;;31.20;99.90;;;;;;5038884;28;20233;-67
2023/08/22 11:23:34;;;;;;;2.90;1.88;;;31.20;99.90;;;;;;5047418;28;20191;-67
2023/08/22 11:26:02;;;;;;;3.25;1.88;;;31.20;99.90;;;;;;5058224;28;20180;-66
2023/08/22 11:28:32;;;;;;;2.88;1.80;;;31.20;99.90;;;;;;5059063;28;20206;-66
2023/08/22 11:31:02;;;;;;;6.95;2.05;;;31.20;99.90;;;;;;5058835;28;20196;-66
2023/08/22 11:33:54;;;;;;;3.40;1.92;;;31.40;99.90;;;;;;5058383;28;20254;-66
2023/08/22 11:36:20;;;;;;;2.45;1.55;;;31.50;99.90;;;;;;5069395;28;20270;-66
2023/08/22 11:38:54;;;;;;;3.47;1.90;;;31.50;99.90;;;;;;5078639;28;20209;-66
2023/08/22 11:41:20;;;;;;;3.05;1.73;;;31.50;99.90;;;;;;5059075;28;20260;-66
2023/08/22 11:43:55;;;;;;;4.15;2.17;;;31.40;99.90;;;;;;5042382;28;20217;-65
2023/08/22 11:46:21;;;;;;;4.90;2.05;;;31.20;99.90;;;;;;5067523;28;20181;-66
2023/08/22 11:48:50;;;;;;;4.05;1.75;;;31.10;99.90;;;;;;5075685;28;20239;-67
2023/08/22 11:51:22;;;;;;;4.35;1.70;;;30.90;99.90;;;;;;5050456;28;20390;-66
2023/08/22 11:53:51;;;;;;;3.25;1.92;;;30.80;99.90;;;;;;5041470;28;20184;-66
2023/08/22 11:56:19;;;;;;;3.45;1.80;;;30.60;99.90;;;;;;5058298;28;20165;-67
2023/08/22 11:59:03;;;;;;;3.83;1.92;;;30.50;99.90;;;;;;5056471;28;20184;-66
2023/08/22 12:01:31;;;;;;;3.80;1.83;;;30.50;99.90;;;;;;5066491;28;20191;-66
2023/08/22 12:03:59;;;;;;;3.17;1.80;;;30.30;99.90;;;;;;5060219;28;20163;-66
2023/08/22 12:06:28;;;;;;;2.83;1.90;;;30.20;99.90;;;;;;5055560;28;20172;-67
2023/08/22 12:08:59;;;;;;;2.85;1.70;;;30.20;99.90;;;;;;5037373;28;20192;-67
2023/08/22 12:11:26;;;;;;;3.15;1.80;;;30.30;99.90;;;;;;5069524;28;20184;-67
2023/08/22 12:13:52;;;;;;;3.20;1.90;;;30.40;99.90;;;;;;5059362;28;20208;-67
2023/08/22 12:16:17;;;;;;;4.25;1.70;;;30.60;99.90;;;;;;5054617;28;20164;-67
2023/08/22 12:18:43;;;;;;;2.17;1.52;;;30.80;99.90;;;;;;5057911;28;20179;-68
2023/08/22 12:21:08;;;;;;;3.47;1.63;;;30.90;99.90;;;;;;5063183;28;20200;-68
2023/08/22 12:23:34;;;;;;;6.03;2.00;;;31.10;99.90;;;;;;5055113;28;20227;-68
2023/08/22 12:26:00;;;;;;;5.28;1.95;;;31.20;99.90;;;;;;5059104;28;20258;-68
2023/08/22 12:28:25;;;;;;;4.93;2.05;;;31.40;99.90;;;;;;5056952;28;20168;-68
2023/08/22 12:30:51;;;;;;;2.72;1.88;;;31.50;99.90;;;;;;5057522;28;20278;-68
2023/08/22 12:33:19;;;;;;;3.20;1.70;;;31.60;99.70;;;;;;5059996;28;20169;-68
2023/08/22 12:35:45;;;;;;;2.40;1.70;;;31.70;99.40;;;;;;5049109;28;20168;-69
2023/08/22 12:38:13;;;;;;;3.58;1.90;;;31.80;99.30;;;;;;5056946;28;20407;-68
2023/08/22 12:40:39;;;;;;;3.45;1.52;;;31.90;98.90;;;;;;5052615;28;20200;-69
2023/08/22 12:43:09;;;;;;;2.22;1.35;;;32.00;98.60;;;;;;5049761;28;20191;-69
2023/08/22 12:45:40;;;;;;;2.83;1.75;;;31.90;97.30;;;;;;5057069;28;20184;-69
2023/08/22 12:48:06;;;;;;;2.45;1.50;;;31.90;97.70;;;;;;5053687;28;20222;-68